Time;durP1;ratioP1;P1;durP2;ratioP2;P2;SDS_P1;SDS_P2;PMS_P1;PMS_P2;Temp;Humidity;BMP_temperature;BMP_pressure;BME280_temperature;BME280_humidity;BME280_pressure;Samples;Min_cycle;Max_cycle;Signal;HPM_P1;HPM_P2
2023/08/22 00:01:00;;;;;;;;;;;16.50;99.90;;;;;;5111081;28;19965;-69
2023/08/22 00:03:26;;;;;;;;;;;16.70;99.90;;;;;;5107404;28;19908;-69
2023/08/22 00:05:53;;;;;;;;;;;16.80;99.90;;;;;;5115446;28;20379;-69
2023/08/22 00:08:20;;;;;;;;;;;16.90;99.90;;;;;;5107783;28;20005;-69
2023/08/22 00:10:46;;;;;;;;;;;17.00;99.90;;;;;;5115695;28;19907;-70
2023/08/22 00:13:13;;;;;;;;;;;17.00;99.90;;;;;;5105710;28;19969;-68
2023/08/22 00:15:40;;;;;;;;;;;17.10;99.90;;;;;;5094499;28;19916;-69
2023/08/22 00:18:07;;;;;;;;;;;17.10;99.90;;;;;;5110571;28;20285;-70
2023/08/22 00:20:35;;;;;;;;;;;17.10;99.90;;;;;;5104249;28;19907;-71
2023/08/22 00:23:03;;;;;;;;;;;17.20;99.90;;;;;;5102276;28;19990;-71
2023/08/22 00:25:30;;;;;;;;;;;17.20;99.90;;;;;;5108641;28;19915;-68
2023/08/22 00:27:57;;;;;;;;;;;17.30;99.90;;;;;;5112075;28;19959;-69
2023/08/22 00:30:24;;;;;;;;;;;17.30;99.90;;;;;;5094881;28;19915;-69
2023/08/22 00:32:50;;;;;;;;;;;17.40;99.90;;;;;;5105741;28;19914;-70
2023/08/22 00:35:17;;;;;;;;;;;17.60;99.90;;;;;;5094960;28;19961;-68
2023/08/22 00:37:43;;;;;;;;;;;17.80;99.90;;;;;;5114311;28;19908;-70
2023/08/22 00:40:10;;;;;;;;;;;17.90;99.70;;;;;;5113491;28;19939;-69
2023/08/22 00:42:37;;;;;;;;;;;18.10;99.50;;;;;;5114563;28;19953;-69
2023/08/22 00:45:04;;;;;;;;;;;18.30;99.40;;;;;;5092493;28;20383;-70
2023/08/22 00:47:30;;;;;;;;;;;18.50;99.10;;;;;;5114210;28;19927;-68
2023/08/22 00:49:57;;;;;;;;;;;18.60;98.90;;;;;;5114461;28;19918;-69
2023/08/22 00:52:24;;;;;;;;;;;18.70;98.80;;;;;;5097854;28;19916;-69
2023/08/22 00:54:51;;;;;;;;;;;18.80;98.70;;;;;;5093412;28;19920;-68
2023/08/22 00:57:18;;;;;;;;;;;19.10;98.40;;;;;;5102099;28;19908;-68
2023/08/22 00:59:44;;;;;;;;;;;19.20;98.00;;;;;;5114261;28;19908;-68
2023/08/22 01:02:11;;;;;;;;;;;19.40;97.90;;;;;;5114108;28;19915;-70
2023/08/22 01:04:38;;;;;;;;;;;19.60;97.30;;;;;;5109544;28;19918;-69
2023/08/22 01:07:05;;;;;;;;;;;19.80;97.70;;;;;;5109195;28;19963;-69
2023/08/22 01:09:31;;;;;;;;;;;20.00;97.00;;;;;;5113800;28;19912;-68
2023/08/22 01:12:18;;;;;;;;;;;20.20;96.70;;;;;;5101699;28;20007;-70
2023/08/22 01:14:49;;;;;;;;;;;20.50;95.90;;;;;;5053851;28;20261;-72
2023/08/22 01:17:16;;;;;;;;;;;20.80;95.80;;;;;;5113955;28;19908;-72
2023/08/22 01:19:42;;;;;;;;;;;21.00;95.40;;;;;;5113911;28;19931;-72
2023/08/22 01:22:10;;;;;;;;;;;21.20;95.30;;;;;;5113446;28;20390;-70
2023/08/22 01:24:37;;;;;;;;;;;21.50;94.50;;;;;;5110897;28;19920;-72
2023/08/22 01:27:05;;;;;;;;;;;21.70;93.40;;;;;;5111954;28;19957;-71
2023/08/22 01:29:38;;;;;;;;;;;21.90;93.00;;;;;;5113710;28;19908;-72
2023/08/22 01:32:10;;;;;;;;;;;22.20;92.80;;;;;;5112112;28;20362;-72
2023/08/22 01:34:38;;;;;;;;;;;22.40;92.90;;;;;;5100022;28;19931;-69
2023/08/22 01:37:06;;;;;;;;;;;22.60;92.60;;;;;;5093059;28;19974;-71
2023/08/22 01:39:33;;;;;;;;;;;22.90;92.30;;;;;;5111395;28;19918;-72
2023/08/22 01:42:00;;;;;;;;;;;23.10;91.90;;;;;;5106897;28;20010;-69
2023/08/22 01:44:28;;;;;;;;;;;23.30;90.90;;;;;;5092249;28;19924;-70
2023/08/22 01:46:55;;;;;;;;;;;23.60;90.70;;;;;;5103793;28;19955;-71
2023/08/22 01:49:22;;;;;;;;;;;23.80;90.20;;;;;;5113407;28;19911;-70
2023/08/22 01:51:48;;;;;;;;;;;24.10;89.90;;;;;;5112289;28;19919;-70
2023/08/22 01:54:15;;;;;;;;;;;24.30;89.30;;;;;;5101068;28;19937;-71
2023/08/22 01:56:42;;;;;;;;;;;24.50;88.20;;;;;;5104850;28;20002;-70
2023/08/22 01:59:08;;;;;;;;;;;24.60;87.60;;;;;;5113305;28;19933;-71
2023/08/22 02:01:35;;;;;;;;;;;24.70;86.10;;;;;;5112425;28;19908;-71
2023/08/22 02:04:03;;;;;;;;;;;24.70;86.00;;;;;;5112489;28;19908;-71
2023/08/22 02:06:33;;;;;;;;;;;24.90;83.40;;;;;;5106043;28;19916;-70
2023/08/22 02:09:00;;;;;;;;;;;24.80;83.80;;;;;;5113066;28;19915;-69
2023/08/22 02:11:27;;;;;;;;;;;24.80;84.00;;;;;;5094623;28;19918;-70
2023/08/22 02:13:54;;;;;;;;;;;24.80;83.00;;;;;;5106110;28;19912;-69
2023/08/22 02:16:21;;;;;;;;;;;24.80;80.10;;;;;;5112640;28;19919;-70
2023/08/22 02:18:48;;;;;;;;;;;24.90;79.10;;;;;;5112654;28;20357;-69
2023/08/22 02:21:14;;;;;;;;;;;25.10;78.90;;;;;;5113095;28;19915;-68
2023/08/22 02:23:41;;;;;;;;;;;25.60;79.20;;;;;;5105571;28;19915;-71
2023/08/22 02:26:08;;;;;;;;;;;25.90;78.60;;;;;;5090810;28;19958;-69
2023/08/22 02:28:34;;;;;;;;;;;26.30;78.90;;;;;;5107221;28;20241;-70
2023/08/22 02:31:02;;;;;;;;;;;26.60;78.30;;;;;;5104741;28;19912;-70
2023/08/22 02:33:29;;;;;;;;;;;26.80;74.60;;;;;;5109780;27;19912;-71
2023/08/22 02:35:55;;;;;;;;;;;27.10;71.70;;;;;;5114408;27;19965;-71
2023/08/22 02:38:22;;;;;;;;;;;27.40;73.60;;;;;;5096420;28;19916;-71
2023/08/22 02:40:49;;;;;;;;;;;28.10;71.60;;;;;;5100269;28;19912;-71
2023/08/22 02:43:15;;;;;;;;;;;28.70;68.80;;;;;;5102061;28;19972;-70
2023/08/22 02:45:44;;;;;;;;;;;29.40;65.70;;;;;;5100018;28;19927;-72
2023/08/22 02:48:10;;;;;;;;;;;29.20;64.90;;;;;;5112120;28;19912;-70
2023/08/22 02:50:37;;;;;;;;;;;29.40;63.00;;;;;;5112545;28;19939;-70
2023/08/22 02:53:04;;;;;;;;;;;30.30;61.60;;;;;;5092414;28;19918;-71
2023/08/22 02:55:33;;;;;;;;;;;31.60;59.70;;;;;;5090118;28;19922;-71
2023/08/22 02:58:00;;;;;;;;;;;31.80;57.70;;;;;;5091377;28;19908;-71
2023/08/22 03:00:27;;;;;;;;;;;32.40;57.20;;;;;;5091846;28;19908;-68
2023/08/22 03:02:54;;;;;;;;;;;32.00;55.70;;;;;;5090963;28;20432;-69
2023/08/22 03:05:20;;;;;;;;;;;31.60;56.00;;;;;;5091109;28;19908;-69
2023/08/22 03:07:47;;;;;;;;;;;31.50;57.00;;;;;;5091864;28;19985;-70
2023/08/22 03:10:14;;;;;;;;;;;31.60;56.10;;;;;;5092154;28;20544;-69
2023/08/22 03:12:41;;;;;;;;;;;32.30;56.60;;;;;;5091934;28;19923;-72
2023/08/22 03:15:08;;;;;;;;;;;33.20;55.20;;;;;;5090872;28;20369;-70
2023/08/22 03:17:34;;;;;;;;;;;33.90;54.20;;;;;;5092132;28;19908;-70
2023/08/22 03:20:03;;;;;;;;;;;34.10;52.30;;;;;;5110701;28;20020;-68
2023/08/22 03:22:30;;;;;;;;;;;33.10;52.10;;;;;;5109130;28;19912;-70
2023/08/22 03:24:56;;;;;;;;;;;33.10;53.20;;;;;;5093132;28;19916;-70
2023/08/22 03:27:24;;;;;;;;;;;32.80;53.20;;;;;;5103190;28;19938;-69
2023/08/22 03:29:50;;;;;;;;;;;31.50;54.10;;;;;;5111340;28;19912;-68
2023/08/22 03:32:17;;;;;;;;;;;30.50;54.80;;;;;;5111555;28;19912;-72
2023/08/22 03:34:43;;;;;;;;;;;29.70;54.90;;;;;;5111195;28;19923;-68
2023/08/22 03:37:10;;;;;;;;;;;29.00;55.70;;;;;;5102543;28;20277;-70
2023/08/22 03:39:37;;;;;;;;;;;28.60;56.20;;;;;;5093127;28;19916;-69
2023/08/22 03:42:03;;;;;;;;;;;28.20;56.90;;;;;;5094062;28;19915;-71
2023/08/22 03:44:30;;;;;;;;;;;27.90;57.40;;;;;;5099079;28;19920;-72
2023/08/22 03:46:57;;;;;;;;;;;27.70;57.00;;;;;;5091589;28;20063;-69
2023/08/22 03:49:24;;;;;;;;;;;27.40;58.30;;;;;;5101527;28;20337;-70
2023/08/22 03:51:50;;;;;;;;;;;27.20;58.20;;;;;;5096881;28;19934;-71
2023/08/22 03:54:17;;;;;;;;;;;27.10;58.20;;;;;;5105865;28;19919;-69
2023/08/22 03:56:43;;;;;;;;;;;27.10;58.40;;;;;;5114855;28;19972;-72
2023/08/22 03:59:10;;;;;;;;;;;27.30;58.70;;;;;;5115339;28;19935;-69
2023/08/22 04:01:37;;;;;;;;;;;27.40;57.90;;;;;;5115652;28;19961;-71
2023/08/22 04:04:03;;;;;;;;;;;27.10;58.80;;;;;;5111405;27;20357;-70
2023/08/22 04:06:30;;;;;;;;;;;27.00;61.10;;;;;;5135641;27;19911;-71
2023/08/22 04:08:57;;;;;;;;;;;27.20;63.20;;;;;;5127730;27;19998;-69
2023/08/22 04:11:23;;;;;;;;;;;27.20;64.40;;;;;;5115196;28;19918;-69
2023/08/22 04:13:50;;;;;;;;;;;27.40;64.50;;;;;;5114800;28;19918;-68
2023/08/22 04:16:17;;;;;;;;;;;27.50;65.00;;;;;;5114348;28;19915;-70
2023/08/22 04:18:43;;;;;;;;;;;27.20;66.00;;;;;;5114980;28;19912;-69
2023/08/22 04:21:10;;;;;;;;;;;27.00;67.20;;;;;;5123472;27;19915;-70
2023/08/22 04:23:37;;;;;;;;;;;26.70;67.00;;;;;;5114265;27;19908;-69
2023/08/22 04:26:04;;;;;;;;;;;26.60;67.70;;;;;;5114875;28;20264;-69
2023/08/22 04:28:33;;;;;;;;;;;26.50;68.10;;;;;;5114751;28;19937;-69
2023/08/22 04:30:59;;;;;;;;;;;26.50;68.40;;;;;;5115126;28;19908;-70
2023/08/22 04:33:26;;;;;;;;;;;26.60;68.50;;;;;;5114220;28;19912;-68
2023/08/22 04:35:53;;;;;;;;;;;26.50;69.10;;;;;;5114758;28;19938;-70
2023/08/22 04:38:19;;;;;;;;;;;26.40;68.90;;;;;;5114497;28;19907;-68
2023/08/22 04:40:46;;;;;;;;;;;26.30;69.60;;;;;;5115138;28;19918;-72
2023/08/22 04:43:12;;;;;;;;;;;26.40;70.30;;;;;;5111592;28;20375;-70
2023/08/22 04:45:39;;;;;;;;;;;26.40;70.60;;;;;;5094075;28;19926;-70
2023/08/22 04:48:06;;;;;;;;;;;27.00;69.60;;;;;;5093699;28;20361;-70
2023/08/22 04:50:32;;;;;;;;;;;28.00;68.30;;;;;;5101602;28;19908;-70
2023/08/22 04:52:59;;;;;;;;;;;28.90;67.50;;;;;;5114312;28;19908;-70
2023/08/22 04:55:26;;;;;;;;;;;29.50;65.20;;;;;;5108885;28;19928;-68
2023/08/22 04:57:52;;;;;;;;;;;29.60;65.20;;;;;;5112660;28;19912;-69
2023/08/22 05:00:22;;;;;;;;;;;29.60;65.70;;;;;;5111008;27;19974;-69
2023/08/22 05:02:49;;;;;;;;;;;30.30;64.60;;;;;;5093454;28;19911;-70
2023/08/22 05:05:15;;;;;;;;;;;30.90;64.50;;;;;;5099344;27;19916;-69
2023/08/22 05:07:42;;;;;;;;;;;31.30;63.40;;;;;;5109303;28;19908;-68
2023/08/22 05:10:09;;;;;;;;;;;31.30;63.80;;;;;;5112454;28;20329;-68
2023/08/22 05:12:35;;;;;;;;;;;31.30;63.70;;;;;;5112419;27;19918;-69
2023/08/22 05:15:02;;;;;;;;;;;31.20;63.20;;;;;;5105616;28;20469;-70
2023/08/22 05:17:29;;;;;;;;;;;30.80;62.80;;;;;;5094891;28;19908;-70
2023/08/22 05:19:55;;;;;;;;;;;30.40;62.90;;;;;;5105488;27;19916;-70
2023/08/22 05:22:22;;;;;;;;;;;29.80;63.80;;;;;;5095731;27;20388;-74
2023/08/22 05:24:49;;;;;;;;;;;29.10;63.80;;;;;;5102215;27;19919;-69
2023/08/22 05:27:17;;;;;;;;;;;28.30;65.50;;;;;;5113098;28;19908;-68
2023/08/22 05:29:43;;;;;;;;;;;27.70;66.60;;;;;;5111973;28;19911;-69
2023/08/22 05:32:10;;;;;;;;;;;27.20;68.30;;;;;;5111398;28;19911;-69
2023/08/22 05:34:37;;;;;;;;;;;26.90;69.50;;;;;;5098367;28;19912;-68
2023/08/22 05:37:03;;;;;;;;;;;26.30;71.00;;;;;;5097788;28;19916;-70
2023/08/22 05:39:30;;;;;;;;;;;25.80;72.00;;;;;;5092499;28;19984;-67
2023/08/22 05:41:56;;;;;;;;;;;25.40;73.10;;;;;;5079160;28;20030;-70
2023/08/22 05:44:23;;;;;;;;;;;25.10;73.80;;;;;;5092091;28;19930;-70
2023/08/22 05:46:50;;;;;;;;;;;24.80;74.40;;;;;;5097245;28;19912;-70
2023/08/22 05:49:16;;;;;;;;;;;24.60;74.60;;;;;;5099599;28;19912;-68
2023/08/22 05:51:43;;;;;;;;;;;24.60;74.40;;;;;;5107831;27;20376;-69
2023/08/22 05:54:10;;;;;;;;;;;24.60;74.10;;;;;;5111660;28;19916;-68
2023/08/22 05:56:36;;;;;;;;;;;24.80;73.80;;;;;;5112600;27;20324;-68
2023/08/22 05:59:03;;;;;;;;;;;24.70;73.10;;;;;;5113079;28;19912;-72
2023/08/22 06:01:29;;;;;;;;;;;24.50;73.40;;;;;;5090567;28;19919;-70
2023/08/22 06:03:56;;;;;;;;;;;24.30;73.00;;;;;;5110137;28;19918;-69
2023/08/22 06:06:23;;;;;;;;;;;24.10;73.20;;;;;;5107273;28;19915;-69
2023/08/22 06:08:49;;;;;;;;;;;23.80;74.10;;;;;;5112021;28;19919;-70
2023/08/22 06:11:16;;;;;;;;;;;23.70;74.60;;;;;;5106866;28;20368;-68
2023/08/22 06:13:43;;;;;;;;;;;23.50;74.50;;;;;;5104803;28;19908;-68
2023/08/22 06:16:11;;;;;;;;;;;23.30;75.30;;;;;;5104620;27;20379;-69
2023/08/22 06:18:37;;;;;;;;;;;23.10;75.40;;;;;;5112759;28;19915;-68
2023/08/22 06:21:04;;;;;;;;;;;23.00;75.50;;;;;;5088848;28;19912;-71
2023/08/22 06:23:30;;;;;;;;;;;23.10;76.00;;;;;;5106737;28;19919;-69
2023/08/22 06:25:57;;;;;;;;;;;23.60;74.40;;;;;;5093793;28;20280;-68
2023/08/22 06:28:24;;;;;;;;;;;23.90;74.20;;;;;;5091819;28;19912;-71
2023/08/22 06:30:50;;;;;;;;;;;24.10;73.30;;;;;;5092673;28;20392;-70
2023/08/22 06:33:17;;;;;;;;;;;24.10;72.80;;;;;;5096871;28;20313;-68
2023/08/22 06:35:49;;;;;;;;;;;24.20;73.10;;;;;;5100591;28;19920;-68
2023/08/22 06:38:16;;;;;;;;;;;24.20;72.30;;;;;;5107361;28;19922;-68
2023/08/22 06:40:43;;;;;;;;;;;24.00;72.60;;;;;;5110471;28;19916;-68
2023/08/22 06:43:09;;;;;;;;;;;23.70;73.30;;;;;;5110028;28;20327;-68
2023/08/22 06:45:36;;;;;;;;;;;23.80;73.50;;;;;;5092391;28;19920;-68
2023/08/22 06:48:03;;;;;;;;;;;24.00;73.90;;;;;;5100715;28;19908;-69
2023/08/22 06:50:29;;;;;;;;;;;24.10;72.70;;;;;;5109943;28;19919;-68
2023/08/22 06:52:56;;;;;;;;;;;24.00;72.50;;;;;;5109607;28;19916;-69
2023/08/22 06:55:22;;;;;;;;;;;23.80;72.90;;;;;;5111671;28;19962;-67
2023/08/22 06:57:49;;;;;;;;;;;23.50;73.50;;;;;;5115689;28;19950;-69
2023/08/22 07:00:16;;;;;;;;;;;23.30;74.10;;;;;;5111919;28;20010;-71
2023/08/22 07:02:44;;;;;;;;;;;23.00;74.70;;;;;;5091914;28;20388;-69
2023/08/22 07:05:11;;;;;;;;;;;22.80;75.40;;;;;;5109050;28;19908;-68
2023/08/22 07:07:38;;;;;;;;;;;22.60;76.30;;;;;;5102385;28;19912;-69
2023/08/22 07:10:08;;;;;;;;;;;22.40;76.90;;;;;;5101647;28;19912;-68
2023/08/22 07:12:36;;;;;;;;;;;22.10;77.50;;;;;;5108711;28;19912;-69
2023/08/22 07:15:04;;;;;;;;;;;21.90;78.40;;;;;;5110084;28;20017;-69
2023/08/22 07:17:31;;;;;;;;;;;21.70;78.90;;;;;;5104960;28;19919;-68
2023/08/22 07:19:57;;;;;;;;;;;21.70;79.50;;;;;;5091624;28;19908;-69
2023/08/22 07:22:24;;;;;;;;;;;21.50;80.00;;;;;;5107579;28;19919;-67
2023/08/22 07:24:50;;;;;;;;;;;21.30;81.00;;;;;;5108160;28;20280;-69
2023/08/22 07:27:17;;;;;;;;;;;21.10;81.80;;;;;;5106067;28;19912;-69
2023/08/22 07:29:44;;;;;;;;;;;20.90;82.50;;;;;;5096680;28;20156;-68
2023/08/22 07:32:10;;;;;;;;;;;20.80;83.40;;;;;;5091555;28;19951;-70
2023/08/22 07:34:37;;;;;;;;;;;20.70;84.10;;;;;;5115026;28;19950;-71
2023/08/22 07:37:04;;;;;;;;;;;20.40;84.80;;;;;;5112368;28;19980;-69
2023/08/22 07:39:30;;;;;;;;;;;20.30;85.90;;;;;;5104261;28;20347;-70
2023/08/22 07:41:57;;;;;;;;;;;20.20;86.70;;;;;;5112100;27;19912;-70
2023/08/22 07:44:24;;;;;;;;;;;20.10;87.70;;;;;;5115743;28;19920;-73
2023/08/22 07:46:51;;;;;;;;;;;19.90;88.90;;;;;;5114519;27;20002;-69
2023/08/22 07:49:17;;;;;;;;;;;19.90;89.70;;;;;;5102031;28;19937;-70
2023/08/22 07:51:44;;;;;;;;;;;19.70;90.30;;;;;;5115193;27;20433;-68
2023/08/22 07:54:11;;;;;;;;;;;19.60;90.60;;;;;;5115861;28;20356;-68
2023/08/22 07:56:38;;;;;;;;;;;19.60;91.10;;;;;;5115521;27;20352;-70
2023/08/22 07:59:04;;;;;;;;;;;19.50;91.30;;;;;;5111357;28;19999;-71
2023/08/22 08:01:32;;;;;;;;;;;19.40;91.60;;;;;;5101987;28;20433;-67
2023/08/22 08:03:59;;;;;;;;;;;19.30;91.80;;;;;;5094897;28;19912;-70
2023/08/22 08:06:26;;;;;;;;;;;19.30;92.10;;;;;;5101051;28;19975;-70
2023/08/22 08:08:56;;;;;;;;;;;19.20;92.40;;;;;;5106922;28;20014;-69
2023/08/22 08:11:23;;;;;;;;;;;19.20;92.50;;;;;;5109759;27;19912;-69
2023/08/22 08:13:49;;;;;;;;;;;19.10;92.70;;;;;;5115546;28;19908;-70
2023/08/22 08:16:16;;;;;;;;;;;19.00;92.90;;;;;;5115057;27;20026;-71
2023/08/22 08:18:43;;;;;;;;;;;19.00;93.10;;;;;;5106364;28;19909;-70
2023/08/22 08:21:09;;;;;;;;;;;18.90;93.40;;;;;;5114968;27;19919;-71
2023/08/22 08:23:36;;;;;;;;;;;18.90;93.60;;;;;;5115469;28;19964;-70
2023/08/22 08:26:04;;;;;;;;;;;18.90;93.80;;;;;;5116503;27;19958;-70
2023/08/22 08:28:31;;;;;;;;;;;18.80;94.00;;;;;;5120658;27;20049;-69
2023/08/22 08:30:58;;;;;;;;;;;18.80;94.10;;;;;;5108045;28;19908;-68
2023/08/22 08:33:24;;;;;;;;;;;18.70;94.40;;;;;;5114878;28;20292;-69
2023/08/22 08:35:51;;;;;;;;;;;18.70;94.50;;;;;;5114543;28;19923;-68
2023/08/22 08:38:17;;;;;;;;;;;18.70;94.60;;;;;;5108888;28;19919;-70
2023/08/22 08:40:45;;;;;;;;;;;18.70;94.70;;;;;;5108865;28;19912;-72
2023/08/22 08:43:12;;;;;;;;;;;18.70;94.80;;;;;;5113401;27;19912;-72
2023/08/22 08:45:39;;;;;;;;;;;18.70;94.90;;;;;;5114491;28;19924;-71
2023/08/22 08:48:07;;;;;;;;;;;18.60;95.10;;;;;;5112311;28;20007;-70
2023/08/22 08:50:34;;;;;;;;;;;18.50;95.20;;;;;;5110163;28;19912;-71
2023/08/22 08:53:02;;;;;;;;;;;18.50;95.40;;;;;;5093188;28;19916;-69
2023/08/22 08:55:28;;;;;;;;;;;18.50;95.50;;;;;;5114250;28;19920;-69
2023/08/22 08:57:58;;;;;;;;;;;18.50;95.40;;;;;;5110497;28;19912;-70
2023/08/22 09:00:24;;;;;;;;;;;18.50;95.40;;;;;;5080082;28;19912;-68
2023/08/22 09:02:52;;;;;;;;;;;18.50;95.50;;;;;;5108810;27;19916;-69
2023/08/22 09:05:20;;;;;;;;;;;18.50;95.50;;;;;;5114492;28;19918;-70
2023/08/22 09:07:46;;;;;;;;;;;18.50;95.30;;;;;;5112399;28;19976;-72
2023/08/22 09:10:13;;;;;;;;;;;18.50;95.20;;;;;;5095020;28;19919;-71
2023/08/22 09:12:40;;;;;;;;;;;18.50;95.10;;;;;;5093430;28;19912;-69
2023/08/22 09:15:08;;;;;;;;;;;18.50;95.00;;;;;;5093994;28;20304;-70
2023/08/22 09:17:34;;;;;;;;;;;18.50;94.60;;;;;;5091309;28;20009;-67
2023/08/22 09:20:11;;;;;;;;;;;18.60;94.60;;;;;;5104874;28;20666;-72
2023/08/22 09:22:37;;;;;;;;;;;18.60;94.40;;;;;;5113007;28;19912;-71
2023/08/22 09:25:07;;;;;;;;;;;18.60;94.00;;;;;;5100604;28;19908;-73
2023/08/22 09:27:34;;;;;;;;;;;18.70;93.80;;;;;;5113995;28;19915;-74
2023/08/22 09:30:01;;;;;;;;;;;18.70;93.90;;;;;;5095980;28;20276;-71
2023/08/22 09:32:28;;;;;;;;;;;18.70;94.50;;;;;;5093418;28;19912;-70
2023/08/22 09:35:01;;;;;;;;;;;18.80;94.90;;;;;;5075676;28;19916;-73
2023/08/22 09:37:32;;;;;;;;;;;18.80;94.40;;;;;;5072994;28;20277;-72
2023/08/22 09:39:59;;;;;;;;;;;18.80;94.20;;;;;;5103057;28;19997;-71
2023/08/22 09:42:29;;;;;;;;;;;18.90;93.80;;;;;;5098825;28;20338;-68
2023/08/22 09:44:57;;;;;;;;;;;19.00;93.40;;;;;;5104965;28;20418;-70
2023/08/22 09:47:28;;;;;;;;;;;18.90;92.70;;;;;;5093080;28;19909;-70
2023/08/22 09:49:56;;;;;;;;;;;19.00;91.60;;;;;;5093907;28;20280;-70
2023/08/22 09:52:24;;;;;;;;;;;19.10;90.50;;;;;;5094982;28;19969;-68
2023/08/22 09:54:52;;;;;;;;;;;19.30;89.80;;;;;;5093566;28;19919;-72
2023/08/22 09:57:19;;;;;;;;;;;19.30;89.10;;;;;;5093826;28;20407;-74
2023/08/22 09:59:48;;;;;;;;;;;19.40;88.30;;;;;;5101965;28;20253;-70
2023/08/22 10:02:15;;;;;;;;;;;19.40;87.30;;;;;;5109255;28;19965;-71
2023/08/22 10:04:41;;;;;;;;;;;19.50;87.10;;;;;;5114172;28;19933;-70
2023/08/22 10:07:08;;;;;;;;;;;19.50;86.80;;;;;;5113831;28;19904;-69
2023/08/22 10:09:35;;;;;;;;;;;19.50;87.00;;;;;;5099861;28;20389;-68
2023/08/22 10:12:05;;;;;;;;;;;19.50;87.60;;;;;;5107431;28;19911;-69
2023/08/22 10:14:33;;;;;;;;;;;19.50;88.20;;;;;;5113505;28;19908;-71
2023/08/22 10:17:00;;;;;;;;;;;19.40;88.80;;;;;;5113870;28;20057;-71
2023/08/22 10:19:27;;;;;;;;;;;19.40;90.00;;;;;;5113744;28;20280;-71
2023/08/22 10:21:54;;;;;;;;;;;19.30;90.10;;;;;;5100613;28;20007;-71
2023/08/22 10:24:27;;;;;;;;;;;19.20;90.40;;;;;;5075154;28;19911;-70
2023/08/22 10:27:03;;;;;;;;;;;19.10;90.80;;;;;;5093292;28;19914;-68
2023/08/22 10:29:34;;;;;;;;;;;19.00;91.20;;;;;;5093312;28;19959;-68
2023/08/22 10:32:01;;;;;;;;;;;19.00;91.50;;;;;;5105219;28;19988;-70
2023/08/22 10:34:47;;;;;;;;;;;18.90;91.70;;;;;;5094968;28;20432;-70
2023/08/22 10:37:18;;;;;;;;;;;18.80;92.00;;;;;;5095256;28;19912;-69
2023/08/22 10:39:46;;;;;;;;;;;18.70;92.10;;;;;;5101570;28;19908;-70
2023/08/22 10:42:19;;;;;;;;;;;18.60;92.10;;;;;;5089376;28;20237;-68
2023/08/22 10:44:49;;;;;;;;;;;18.60;92.20;;;;;;5113263;28;19920;-70
2023/08/22 10:47:25;;;;;;;;;;;18.60;92.30;;;;;;5113271;28;19914;-69
2023/08/22 10:49:56;;;;;;;;;;;18.50;92.30;;;;;;5113027;28;19912;-70
2023/08/22 10:52:37;;;;;;;;;;;18.50;92.50;;;;;;5097284;28;20416;-69
2023/08/22 10:55:05;;;;;;;;;;;18.50;92.40;;;;;;5100091;28;19922;-70
2023/08/22 10:57:33;;;;;;;;;;;18.50;92.50;;;;;;5112365;28;20012;-69
2023/08/22 10:59:59;;;;;;;;;;;18.50;92.40;;;;;;5114502;28;19973;-71
2023/08/22 11:02:33;;;;;;;;;;;18.50;92.40;;;;;;5118481;28;20011;-71
2023/08/22 11:05:04;;;;;;;;;;;18.50;92.30;;;;;;5099714;28;19947;-72
2023/08/22 11:07:31;;;;;;;;;;;18.50;92.30;;;;;;5083345;28;20353;-73
2023/08/22 11:10:00;;;;;;;;;;;18.50;92.40;;;;;;5101168;28;19907;-72
2023/08/22 11:12:28;;;;;;;;;;;18.50;92.40;;;;;;5118558;28;19955;-74
2023/08/22 11:14:57;;;;;;;;;;;18.50;92.60;;;;;;5098272;28;19973;-70
2023/08/22 11:17:24;;;;;;;;;;;18.40;92.40;;;;;;5118413;28;19916;-72
2023/08/22 11:19:55;;;;;;;;;;;18.30;92.50;;;;;;5116436;28;19965;-72
2023/08/22 11:22:21;;;;;;;;;;;18.30;92.60;;;;;;5100248;28;19911;-69
2023/08/22 11:24:49;;;;;;;;;;;18.20;92.60;;;;;;5119254;28;19947;-73
2023/08/22 11:27:17;;;;;;;;;;;18.20;92.60;;;;;;5116914;28;19953;-70
2023/08/22 11:29:44;;;;;;;;;;;18.20;92.60;;;;;;5100968;28;19953;-71
2023/08/22 11:32:28;;;;;;;;;;;18.10;92.70;;;;;;5117923;28;20253;-69
2023/08/22 11:34:55;;;;;;;;;;;18.10;92.70;;;;;;5113544;28;19945;-69
2023/08/22 11:37:22;;;;;;;;;;;18.20;92.70;;;;;;5103044;28;19920;-73
2023/08/22 11:39:50;;;;;;;;;;;18.20;92.60;;;;;;5118131;28;19930;-71
2023/08/22 11:42:17;;;;;;;;;;;18.20;92.60;;;;;;5087636;28;19923;-72
2023/08/22 11:44:59;;;;;;;;;;;18.30;92.20;;;;;;5080692;28;19920;-74
2023/08/22 11:47:46;;;;;;;;;;;18.30;92.10;;;;;;5081100;28;19994;-72
2023/08/22 11:50:16;;;;;;;;;;;18.50;92.50;;;;;;5118989;28;20316;-71
2023/08/22 11:52:46;;;;;;;;;;;18.50;92.80;;;;;;5102216;28;19919;-71
2023/08/22 11:55:16;;;;;;;;;;;18.50;93.90;;;;;;5063769;28;19920;-72
2023/08/22 11:57:44;;;;;;;;;;;18.40;95.30;;;;;;5098793;28;19915;-70
2023/08/22 12:00:11;;;;;;;;;;;18.30;96.90;;;;;;5089704;28;19919;-70
2023/08/22 12:02:38;;;;;;;;;;;18.30;97.80;;;;;;5103191;28;19912;-71
2023/08/22 12:05:05;;;;;;;;;;;18.20;99.10;;;;;;5098514;28;19915;-70
2023/08/22 12:07:41;;;;;;;;;;;18.00;99.00;;;;;;5098650;28;19908;-69
2023/08/22 12:10:12;;;;;;;;;;;18.00;99.20;;;;;;5097819;28;19954;-69
2023/08/22 12:12:39;;;;;;;;;;;17.90;99.90;;;;;;5110416;28;19912;-70
2023/08/22 12:15:06;;;;;;;;;;;17.90;99.80;;;;;;5115958;28;19911;-73
2023/08/22 12:17:32;;;;;;;;;;;17.80;99.90;;;;;;5116224;28;19908;-71
2023/08/22 12:20:00;;;;;;;;;;;17.80;99.90;;;;;;5097465;28;19914;-71
2023/08/22 12:22:27;;;;;;;;;;;17.80;99.90;;;;;;5102075;28;20292;-71
2023/08/22 12:24:54;;;;;;;;;;;17.70;99.90;;;;;;5095693;28;19908;-71
2023/08/22 12:27:20;;;;;;;;;;;17.80;99.90;;;;;;5095797;28;19912;-70
2023/08/22 12:29:47;;;;;;;;;;;17.70;99.90;;;;;;5104467;28;20249;-75
2023/08/22 12:32:14;;;;;;;;;;;17.80;99.90;;;;;;5085691;28;20393;-73
2023/08/22 12:34:41;;;;;;;;;;;17.70;99.90;;;;;;5094932;28;19923;-71
2023/08/22 12:37:08;;;;;;;;;;;17.60;99.90;;;;;;5076999;28;19919;-72
2023/08/22 12:39:35;;;;;;;;;;;17.40;99.90;;;;;;5109831;28;19919;-70
2023/08/22 12:42:02;;;;;;;;;;;17.30;99.90;;;;;;5087298;28;19919;-74
2023/08/22 12:44:32;;;;;;;;;;;17.10;99.90;;;;;;5094870;28;20376;-72
2023/08/22 12:46:59;;;;;;;;;;;17.00;99.90;;;;;;5076879;28;19916;-71
2023/08/22 12:49:26;;;;;;;;;;;16.90;99.90;;;;;;5077014;28;19981;-68
2023/08/22 12:51:52;;;;;;;;;;;16.80;99.90;;;;;;5084817;28;19969;-71
2023/08/22 12:54:19;;;;;;;;;;;16.70;99.90;;;;;;5115429;28;20370;-69
2023/08/22 12:56:45;;;;;;;;;;;16.60;99.90;;;;;;5113814;28;19920;-70
2023/08/22 12:59:12;;;;;;;;;;;16.50;99.90;;;;;;5094820;28;19908;-71
2023/08/22 13:01:42;;;;;;;;;;;16.40;99.90;;;;;;5098005;28;20292;-71
2023/08/22 13:04:14;;;;;;;;;;;16.30;99.90;;;;;;5094309;28;20002;-69
2023/08/22 13:06:41;;;;;;;;;;;16.30;99.90;;;;;;5094712;28;20369;-70
2023/08/22 13:09:12;;;;;;;;;;;16.20;99.90;;;;;;5094722;28;19908;-69
2023/08/22 13:11:39;;;;;;;;;;;16.10;99.90;;;;;;5084374;28;20411;-72
2023/08/22 13:14:09;;;;;;;;;;;16.10;99.90;;;;;;5088607;28;19966;-71
2023/08/22 13:16:38;;;;;;;;;;;16.10;99.90;;;;;;5095711;28;19926;-72
2023/08/22 13:19:05;;;;;;;;;;;16.10;99.90;;;;;;5114922;28;19908;-70
2023/08/22 13:21:32;;;;;;;;;;;16.10;99.90;;;;;;5114662;28;19908;-70
2023/08/22 13:24:00;;;;;;;;;;;16.00;99.90;;;;;;5113370;28;20334;-71
2023/08/22 13:26:27;;;;;;;;;;;15.90;99.90;;;;;;5095562;28;19916;-70
2023/08/22 13:28:53;;;;;;;;;;;15.90;99.90;;;;;;5096649;28;19915;-70
2023/08/22 13:31:20;;;;;;;;;;;15.90;99.90;;;;;;5096515;28;20006;-70
2023/08/22 13:33:47;;;;;;;;;;;15.80;99.90;;;;;;5112229;28;20344;-69
2023/08/22 13:36:13;;;;;;;;;;;15.80;99.90;;;;;;5093828;28;19923;-73
2023/08/22 13:38:40;;;;;;;;;;;15.80;99.90;;;;;;5075965;28;19915;-73
2023/08/22 13:41:07;;;;;;;;;;;15.80;99.90;;;;;;5075965;28;19918;-73
2023/08/22 13:43:35;;;;;;;;;;;15.80;99.90;;;;;;5093898;28;19908;-73
2023/08/22 13:46:02;;;;;;;;;;;15.80;99.90;;;;;;5075559;28;19924;-72
2023/08/22 13:48:28;;;;;;;;;;;15.80;99.90;;;;;;5094198;28;19962;-74
2023/08/22 13:50:55;;;;;;;;;;;15.90;99.90;;;;;;5075917;28;19908;-72
2023/08/22 13:53:22;;;;;;;;;;;15.80;99.90;;;;;;5109901;28;19908;-70
2023/08/22 13:55:48;;;;;;;;;;;15.90;99.90;;;;;;5093438;28;19927;-70
2023/08/22 13:58:16;;;;;;;;;;;15.90;99.90;;;;;;5075228;28;20007;-71
2023/08/22 14:00:42;;;;;;;;;;;16.00;99.90;;;;;;5093686;28;19953;-72
2023/08/22 14:03:09;;;;;;;;;;;16.00;99.90;;;;;;5075165;28;19908;-72
2023/08/22 14:05:36;;;;;;;;;;;16.00;99.90;;;;;;5111990;28;19938;-70
2023/08/22 14:08:04;;;;;;;;;;;16.00;99.90;;;;;;5113930;28;19911;-71
2023/08/22 14:10:31;;;;;;;;;;;16.00;99.90;;;;;;5095610;28;19908;-73
2023/08/22 14:12:58;;;;;;;;;;;16.00;99.90;;;;;;5113961;28;19908;-71
2023/08/22 14:15:25;;;;;;;;;;;16.00;99.90;;;;;;5096038;28;19991;-71
2023/08/22 14:17:51;;;;;;;;;;;15.90;99.90;;;;;;5093379;28;20006;-73